YBLT weather

Ballarat Airport
Victoria, Australia

Public forecast

Using degrees Celsius for public forecast. Weather courtesy of forecast.io.

METAR (pilot weather report)

Closest report is Avalon Airport, 45.2 nm (83.6 km) SE. Retrieved 2019/03/20 02:30 UTC (8 minutes ago):

YMAV 200230Z AUTO 19008KT 9999 // SCT014 OVC027 22/18 Q1015

TAF (pilot weather forecast)

Forecast is more than 12 hours old.

Closest forecast is Avalon Airport, 45.2 nm (83.6 km) SE. Retrieved 2019/03/19 00:00 UTC (1 day ago):

TAF YMAV 192308Z 2000/2024 17008KT 9999 -DZ FEW007 BKN012 FM200300 15012KT 9999 SCT015 BKN025 FM200500 18009KT 9999 -DZ FEW008 BKN012 TEMPO 2000/2008 9000 HZ BKN012 TEMPO 2008/2024 8000 -DZ BKN008